Time;durP1;ratioP1;P1;durP2;ratioP2;P2;SDS_P1;SDS_P2;PMS_P1;PMS_P2;Temp;Humidity;BMP_temperature;BMP_pressure;BME280_temperature;BME280_humidity;BME280_pressure;Samples;Min_cycle;Max_cycle;Signal;HPM_P1;HPM_P2
2022/11/07 00:02:06;;;;;;;;;;;;;;;10.39;91.87;100681.59;5044997;28;19916;-59
2022/11/07 00:04:32;;;;;;;;;;;;;;;10.37;91.93;100683.59;5047295;28;19925;-59
2022/11/07 00:06:57;;;;;;;;;;;;;;;10.37;92.11;100683.59;5046935;28;19947;-59
2022/11/07 00:09:23;;;;;;;;;;;;;;;10.39;91.95;100687.72;5047322;28;19968;-59
2022/11/07 00:11:48;;;;;;;;;;;;;;;10.43;91.79;100688.22;5042849;28;20039;-59
2022/11/07 00:14:14;;;;;;;;;;;;;;;10.40;92.09;100685.91;5045695;28;19939;-59
2022/11/07 00:16:40;;;;;;;;;;;;;;;10.40;91.70;100686.72;5045296;28;19940;-59
2022/11/07 00:19:05;;;;;;;;;;;;;;;10.43;91.81;100698.84;5044806;28;20011;-59
2022/11/07 00:21:30;;;;;;;;;;;;;;;10.44;91.98;100689.88;5044428;28;20454;-59
2022/11/07 00:23:56;;;;;;;;;;;;;;;10.49;91.86;100691.00;5047124;28;19924;-59
2022/11/07 00:26:21;;;;;;;;;;;;;;;10.54;91.66;100690.50;5040670;28;19925;-59
2022/11/07 00:28:46;;;;;;;;;;;;;;;10.54;91.92;100695.81;5044033;28;19975;-59
2022/11/07 00:31:12;;;;;;;;;;;;;;;10.54;91.77;100690.50;5043688;28;21790;-59
2022/11/07 00:33:37;;;;;;;;;;;;;;;10.53;91.80;100696.81;5048773;28;19995;-59
2022/11/07 00:36:03;;;;;;;;;;;;;;;10.52;91.83;100703.94;5044858;28;20015;-59
2022/11/07 00:38:28;;;;;;;;;;;;;;;10.49;91.92;100696.31;5047672;28;20007;-59
2022/11/07 00:40:57;;;;;;;;;;;;;;;10.46;91.67;100698.50;5046701;28;19921;-59
2022/11/07 00:43:23;;;;;;;;;;;;;;;10.46;91.85;100699.34;5049057;28;20136;-59
2022/11/07 00:45:48;;;;;;;;;;;;;;;10.42;91.85;100705.16;5052607;28;20486;-59
2022/11/07 00:48:13;;;;;;;;;;;;;;;10.37;91.74;100707.47;5048174;28;20319;-59
2022/11/07 00:50:39;;;;;;;;;;;;;;;10.37;91.92;100702.16;5048893;28;19917;-59
2022/11/07 00:53:04;;;;;;;;;;;;;;;10.33;92.05;100711.47;5048251;28;19917;-59
2022/11/07 00:55:30;;;;;;;;;;;;;;;10.28;91.95;100706.69;5051445;28;20046;-59
2022/11/07 00:57:55;;;;;;;;;;;;;;;10.27;91.98;100705.03;5050022;28;19924;-59
2022/11/07 01:00:21;;;;;;;;;;;;;;;10.23;92.17;100709.03;5045900;28;19924;-60
2022/11/07 01:05:09;;;;;;;;;;;;;;;10.22;92.58;100712.69;5045970;28;19917;-59
2022/11/07 01:05:31;;;;;;;;;;;;;;;10.19;92.44;100713.84;5042427;28;19923;-59
2022/11/07 01:07:56;;;;;;;;;;;;;;;10.18;92.52;100709.53;5045615;28;19912;-59
2022/11/07 01:10:21;;;;;;;;;;;;;;;10.21;92.82;100713.69;5050386;28;19917;-59
2022/11/07 01:12:46;;;;;;;;;;;;;;;10.18;92.53;100712.19;5046895;28;19924;-59
2022/11/07 01:15:12;;;;;;;;;;;;;;;10.19;93.03;100713.84;5053254;28;19940;-59
2022/11/07 01:17:37;;;;;;;;;;;;;;;10.17;92.95;100722.97;5053056;28;19923;-59
2022/11/07 01:20:02;;;;;;;;;;;;;;;10.18;93.05;100721.97;5052504;28;21251;-59
2022/11/07 01:22:27;;;;;;;;;;;;;;;10.16;93.20;100727.44;5047420;28;19921;-59
2022/11/07 01:24:52;;;;;;;;;;;;;;;10.18;93.13;100724.63;5048027;28;19932;-59
2022/11/07 01:27:18;;;;;;;;;;;;;;;10.18;92.87;100746.69;5052318;28;19913;-59
2022/11/07 01:29:43;;;;;;;;;;;;;;;10.20;92.91;100735.91;5054311;28;19923;-60
2022/11/07 01:32:08;;;;;;;;;;;;;;;10.20;92.96;100742.06;5048328;28;20562;-60
2022/11/07 01:34:33;;;;;;;;;;;;;;;10.19;93.00;100748.34;5044895;28;19924;-59
2022/11/07 01:36:58;;;;;;;;;;;;;;;10.19;93.26;100758.94;5044235;28;20495;-59
2022/11/07 01:39:23;;;;;;;;;;;;;;;10.21;93.21;100756.97;5046271;28;19917;-59
2022/11/07 01:41:49;;;;;;;;;;;;;;;10.23;93.45;100752.34;5049568;28;19924;-59
2022/11/07 01:44:14;;;;;;;;;;;;;;;10.26;93.59;100735.22;5048371;28;20338;-59
2022/11/07 01:46:40;;;;;;;;;;;;;;;10.24;93.46;100734.59;5048036;28;19931;-59
2022/11/07 01:49:16;;;;;;;;;;;;;;;10.26;93.24;100739.72;5046783;28;19921;-59
2022/11/07 01:51:50;;;;;;;;;;;;;;;10.26;93.46;100745.84;5050561;28;20283;-59
2022/11/07 01:54:18;;;;;;;;;;;;;;;10.28;93.54;100743.03;5047148;28;20070;-59
2022/11/07 01:56:44;;;;;;;;;;;;;;;10.27;93.48;100742.19;5058051;28;20289;-60
2022/11/07 01:59:12;;;;;;;;;;;;;;;10.26;93.66;100729.09;5042032;28;20003;-59
2022/11/07 02:01:38;;;;;;;;;;;;;;;10.27;93.70;100730.75;5048827;28;19925;-59
2022/11/07 02:04:03;;;;;;;;;;;;;;;10.27;93.39;100731.59;5053552;28;19971;-59
2022/11/07 02:06:42;;;;;;;;;;;;;;;10.28;93.55;100743.03;5051790;28;19916;-59
2022/11/07 02:09:07;;;;;;;;;;;;;;;10.34;93.52;100739.69;5047656;28;19920;-59
2022/11/07 02:11:32;;;;;;;;;;;;;;;10.37;93.89;100744.66;5051865;28;20022;-59
2022/11/07 02:13:58;;;;;;;;;;;;;;;10.40;93.74;100747.78;5051222;28;19917;-59
2022/11/07 02:16:23;;;;;;;;;;;;;;;10.44;93.59;100757.09;5049871;28;19962;-59
2022/11/07 02:18:48;;;;;;;;;;;;;;;10.47;93.57;100746.13;5050069;28;20424;-59
2022/11/07 02:21:21;;;;;;;;;;;;;;;10.52;93.42;100749.06;5050722;28;19921;-59
2022/11/07 02:24:06;;;;;;;;;;;;;;;10.56;93.71;100744.25;5051459;28;20308;-59
2022/11/07 02:26:32;;;;;;;;;;;;;;;10.59;93.74;100748.38;5041749;28;19917;-59
2022/11/07 02:28:58;;;;;;;;;;;;;;;10.58;93.47;100755.53;5047651;28;19917;-59
2022/11/07 02:31:23;;;;;;;;;;;;;;;10.58;93.47;100752.03;5049905;28;19928;-59
2022/11/07 02:33:48;;;;;;;;;;;;;;;10.57;93.14;100761.00;5048676;28;20440;-59
2022/11/07 02:36:15;;;;;;;;;;;;;;;10.56;93.20;100760.19;5049417;28;20440;-59
2022/11/07 02:38:41;;;;;;;;;;;;;;;10.54;93.00;100756.88;5049473;28;19916;-59
2022/11/07 02:41:11;;;;;;;;;;;;;;;10.50;93.36;100753.75;5042384;28;20024;-59
2022/11/07 02:43:38;;;;;;;;;;;;;;;10.48;93.52;100758.41;5053737;28;19959;-59
2022/11/07 02:46:04;;;;;;;;;;;;;;;10.50;93.52;100752.91;5050545;28;21346;-59
2022/11/07 02:48:31;;;;;;;;;;;;;;;10.50;93.48;100737.81;5051046;28;19923;-59
2022/11/07 02:50:56;;;;;;;;;;;;;;;10.49;93.51;100744.13;5047534;28;20669;-59
2022/11/07 02:53:22;;;;;;;;;;;;;;;10.52;93.49;100749.06;5039054;28;19925;-59
2022/11/07 02:55:47;;;;;;;;;;;;;;;10.52;93.55;100742.94;5050631;28;20376;-59
2022/11/07 02:58:12;;;;;;;;;;;;;;;10.50;93.67;100736.97;5050991;28;19924;-59
2022/11/07 03:00:38;;;;;;;;;;;;;;;10.51;93.67;100728.84;5051510;28;19916;-59
2022/11/07 03:03:03;;;;;;;;;;;;;;;10.48;93.70;100728.38;5040420;28;19921;-59
2022/11/07 03:05:28;;;;;;;;;;;;;;;10.47;93.73;100726.69;5047368;28;20004;-59
2022/11/07 03:07:53;;;;;;;;;;;;;;;10.46;93.73;100733.84;5050907;28;19912;-59
2022/11/07 03:10:18;;;;;;;;;;;;;;;10.49;93.52;100740.63;5049449;28;19951;-59
2022/11/07 03:12:43;;;;;;;;;;;;;;;10.45;93.83;100732.19;5049001;28;19913;-59
2022/11/07 03:15:09;;;;;;;;;;;;;;;10.44;93.55;100732.38;5047629;28;19920;-59
2022/11/07 03:17:35;;;;;;;;;;;;;;;10.42;93.73;100740.50;5054795;28;19923;-59
2022/11/07 03:20:00;;;;;;;;;;;;;;;10.43;93.83;100738.69;5050282;28;19920;-59
2022/11/07 03:22:26;;;;;;;;;;;;;;;10.43;93.75;100743.97;5048800;28;19928;-59
2022/11/07 03:24:51;;;;;;;;;;;;;;;10.44;94.06;100737.69;5049029;28;19919;-59
2022/11/07 03:27:17;;;;;;;;;;;;;;;10.42;94.08;100742.34;5048556;28;19956;-59
2022/11/07 03:29:42;;;;;;;;;;;;;;;10.42;94.20;100751.13;5047493;28;20015;-59
2022/11/07 03:32:07;;;;;;;;;;;;;;;10.42;94.08;100750.28;5050414;28;20371;-59
2022/11/07 03:34:32;;;;;;;;;;;;;;;10.41;93.91;100751.28;5050930;28;19927;-59
2022/11/07 03:36:57;;;;;;;;;;;;;;;10.41;93.92;100761.91;5050557;28;20390;-59
2022/11/07 03:39:22;;;;;;;;;;;;;;;10.42;93.99;100755.59;5046183;28;19917;-59
2022/11/07 03:41:48;;;;;;;;;;;;;;;10.42;93.98;100760.91;5046597;28;19925;-59
2022/11/07 03:44:13;;;;;;;;;;;;;;;10.42;94.07;100758.25;5044632;28;19921;-59
2022/11/07 03:46:38;;;;;;;;;;;;;;;10.41;93.97;100756.59;5046103;28;19921;-59
2022/11/07 03:49:03;;;;;;;;;;;;;;;10.42;94.32;100761.75;5044971;28;20532;-59
2022/11/07 03:51:28;;;;;;;;;;;;;;;10.42;94.41;100767.03;5055544;28;19917;-60
2022/11/07 03:53:54;;;;;;;;;;;;;;;10.45;94.10;100757.91;5048606;28;19917;-59
2022/11/07 03:56:19;;;;;;;;;;;;;;;10.47;94.32;100762.06;5049714;28;19927;-59
2022/11/07 03:58:44;;;;;;;;;;;;;;;10.46;93.93;100762.22;5045972;28;19920;-60
2022/11/07 04:01:10;;;;;;;;;;;;;;;10.49;94.18;100761.88;5041460;28;20380;-59
2022/11/07 04:03:35;;;;;;;;;;;;;;;10.51;94.32;100760.69;5049082;28;20292;-59
2022/11/07 04:06:00;;;;;;;;;;;;;;;10.54;94.00;100756.88;5048405;28;19913;-60
2022/11/07 04:08:26;;;;;;;;;;;;;;;10.56;94.02;100757.53;5049408;28;20007;-59
2022/11/07 04:10:51;;;;;;;;;;;;;;;10.58;94.20;100758.19;5049097;28;20455;-59
2022/11/07 04:18:44;;;;;;;;;;;;;;;10.65;93.63;100745.03;5044872;28;20069;-59
2022/11/07 04:21:09;;;;;;;;;;;;;;;10.66;93.70;100750.16;5048218;28;19948;-59
2022/11/07 04:23:35;;;;;;;;;;;;;;;10.67;93.68;100759.78;5047582;28;19927;-59
2022/11/07 04:28:44;;;;;;;;;;;;;;;10.72;93.21;100767.25;5044939;28;19923;-59
2022/11/07 04:31:09;;;;;;;;;;;;;;;10.72;93.32;100762.78;5048220;28;19917;-59
2022/11/07 04:33:34;;;;;;;;;;;;;;;10.70;93.36;100756.81;5045323;28;20323;-59
2022/11/07 04:35:59;;;;;;;;;;;;;;;10.68;93.24;100756.13;5043956;28;19967;-59
2022/11/07 04:38:25;;;;;;;;;;;;;;;10.66;93.00;100755.47;5046106;28;20317;-59
2022/11/07 04:40:56;;;;;;;;;;;;;;;10.63;93.02;100760.31;5047790;28;19921;-59
2022/11/07 04:43:23;;;;;;;;;;;;;;;10.60;93.42;100758.00;5046134;28;20391;-59
2022/11/07 04:45:48;;;;;;;;;;;;;;;10.58;93.50;100755.53;5048838;28;19916;-59
2022/11/07 04:48:13;;;;;;;;;;;;;;;10.57;93.24;100764.50;5047516;28;20000;-59
2022/11/07 04:50:39;;;;;;;;;;;;;;;10.60;93.63;100758.00;5044611;28;20376;-59
2022/11/07 04:53:04;;;;;;;;;;;;;;;10.60;93.36;100763.31;5048721;28;20437;-59
2022/11/07 04:55:29;;;;;;;;;;;;;;;10.60;93.23;100756.19;5051691;28;20352;-59
2022/11/07 04:57:54;;;;;;;;;;;;;;;10.60;93.52;100764.13;5048968;28;19913;-59
2022/11/07 05:00:20;;;;;;;;;;;;;;;10.58;93.17;100762.66;5050322;28;20293;-59
2022/11/07 05:02:45;;;;;;;;;;;;;;;10.58;93.05;100767.97;5048436;28;19998;-59
2022/11/07 05:05:11;;;;;;;;;;;;;;;10.60;93.28;100773.94;5043581;28;20043;-59
2022/11/07 05:07:36;;;;;;;;;;;;;;;10.62;93.24;100770.09;5047977;28;19916;-60
2022/11/07 05:10:01;;;;;;;;;;;;;;;10.68;93.29;100773.91;5047197;28;19912;-59
2022/11/07 05:12:27;;;;;;;;;;;;;;;10.68;93.01;100772.06;5055231;28;19913;-59
2022/11/07 05:14:52;;;;;;;;;;;;;;;10.71;93.06;100776.22;5052180;28;20343;-59
2022/11/07 05:17:17;;;;;;;;;;;;;;;10.69;93.20;100778.19;5053047;28;19916;-59
2022/11/07 05:19:42;;;;;;;;;;;;;;;10.71;92.90;100782.38;5054171;28;20152;-59
2022/11/07 05:24:52;;;;;;;;;;;;;;;10.77;93.00;100780.84;5051270;28;19947;-59
2022/11/07 05:27:18;;;;;;;;;;;;;;;10.83;92.42;100780.16;5052199;28;20474;-59
2022/11/07 05:29:43;;;;;;;;;;;;;;;10.88;92.15;100782.28;5052315;28;19923;-60
2022/11/07 05:32:08;;;;;;;;;;;;;;;10.89;92.04;100783.94;5053118;28;19924;-59
2022/11/07 05:34:33;;;;;;;;;;;;;;;10.88;92.25;100779.63;5051011;28;19917;-59
2022/11/07 05:36:59;;;;;;;;;;;;;;;10.88;92.01;100792.91;5054647;28;20402;-59
2022/11/07 05:39:24;;;;;;;;;;;;;;;10.88;91.98;100787.59;5051033;28;19913;-59
2022/11/07 05:41:49;;;;;;;;;;;;;;;10.88;91.82;100790.25;5049953;28;19917;-59
2022/11/07 05:44:14;;;;;;;;;;;;;;;10.88;91.83;100793.72;5051408;28;20339;-59
2022/11/07 05:46:39;;;;;;;;;;;;;;;10.86;91.88;100783.28;5048359;28;19920;-59
2022/11/07 05:49:04;;;;;;;;;;;;;;;10.83;91.65;100786.28;5045706;28;19921;-60
2022/11/07 05:51:30;;;;;;;;;;;;;;;10.83;91.63;100783.63;5049759;28;19927;-59
2022/11/07 05:53:55;;;;;;;;;;;;;;;10.85;91.74;100794.06;5044684;28;19916;-59
2022/11/07 05:56:20;;;;;;;;;;;;;;;10.84;91.59;100785.28;5046847;28;20404;-59
2022/11/07 05:58:45;;;;;;;;;;;;;;;10.85;91.95;100778.97;5054771;28;19919;-59
2022/11/07 06:01:10;;;;;;;;;;;;;;;10.83;92.02;100788.13;5050787;28;19917;-59
2022/11/07 06:03:36;;;;;;;;;;;;;;;10.82;91.92;100784.63;5050727;28;19913;-59
2022/11/07 06:06:01;;;;;;;;;;;;;;;10.77;91.71;100784.31;5051416;28;20591;-59
2022/11/07 06:08:26;;;;;;;;;;;;;;;10.82;91.73;100779.31;5046793;28;19928;-59
2022/11/07 06:10:51;;;;;;;;;;;;;;;10.83;91.86;100780.97;5047699;28;19921;-59
2022/11/07 06:13:16;;;;;;;;;;;;;;;10.82;91.80;100773.19;5051866;28;19917;-59
2022/11/07 06:15:42;;;;;;;;;;;;;;;10.79;91.87;100778.84;5051226;28;19916;-59
2022/11/07 06:18:11;;;;;;;;;;;;;;;10.77;91.79;100776.34;5047266;28;19917;-59
2022/11/07 06:20:36;;;;;;;;;;;;;;;10.77;91.88;100778.19;5045037;28;19979;-59
2022/11/07 06:23:03;;;;;;;;;;;;;;;10.79;91.86;100779.66;5045705;28;19964;-59
2022/11/07 06:25:28;;;;;;;;;;;;;;;10.81;91.87;100777.66;5045617;28;19917;-60
2022/11/07 06:28:01;;;;;;;;;;;;;;;10.82;91.80;100781.97;5047667;28;19916;-59
2022/11/07 06:30:26;;;;;;;;;;;;;;;10.83;91.50;100790.78;5044712;28;20003;-59
2022/11/07 06:32:51;;;;;;;;;;;;;;;10.86;91.55;100788.59;5050387;28;20042;-60
2022/11/07 06:35:16;;;;;;;;;;;;;;;10.90;91.74;100794.38;5048226;28;20402;-59
2022/11/07 06:37:42;;;;;;;;;;;;;;;10.96;91.52;100800.81;5045566;28;19921;-60
2022/11/07 06:40:08;;;;;;;;;;;;;;;10.97;91.24;100795.34;5047967;28;20451;-60
2022/11/07 06:42:33;;;;;;;;;;;;;;;10.97;91.54;100789.19;5051565;28;19921;-59
2022/11/07 06:44:58;;;;;;;;;;;;;;;11.01;91.18;100788.69;5051544;28;19912;-59
2022/11/07 06:47:23;;;;;;;;;;;;;;;11.01;91.51;100786.03;5055543;28;19913;-60
2022/11/07 06:49:48;;;;;;;;;;;;;;;11.00;91.28;100796.84;5051659;28;19962;-60
2022/11/07 06:52:13;;;;;;;;;;;;;;;10.99;91.67;100801.34;5052235;28;19921;-60
2022/11/07 06:54:39;;;;;;;;;;;;;;;11.00;91.63;100804.81;5050254;28;19963;-60
2022/11/07 06:57:04;;;;;;;;;;;;;;;11.02;91.60;100808.13;5052197;28;19913;-60
2022/11/07 06:59:29;;;;;;;;;;;;;;;11.01;92.09;100812.63;5055827;28;20399;-60
2022/11/07 07:01:54;;;;;;;;;;;;;;;11.02;92.16;100818.75;5048151;28;19998;-60
2022/11/07 07:04:19;;;;;;;;;;;;;;;11.00;92.35;100820.75;5051561;28;19917;-59
2022/11/07 07:06:45;;;;;;;;;;;;;;;10.98;92.62;100828.06;5048672;28;19915;-60
2022/11/07 07:09:10;;;;;;;;;;;;;;;11.00;92.73;100818.09;5041958;28;19967;-59
2022/11/07 07:11:38;;;;;;;;;;;;;;;10.99;92.55;100825.25;5053512;28;19966;-60
2022/11/07 07:14:04;;;;;;;;;;;;;;;11.00;92.65;100826.06;5051921;28;19921;-60
2022/11/07 07:16:29;;;;;;;;;;;;;;;11.00;93.25;100831.38;5050188;28;20015;-60
2022/11/07 07:18:54;;;;;;;;;;;;;;;10.99;93.05;100833.22;5042206;28;20012;-59
2022/11/07 07:21:20;;;;;;;;;;;;;;;11.02;93.09;100837.34;5048568;28;19925;-59
2022/11/07 07:23:45;;;;;;;;;;;;;;;11.06;93.05;100846.63;5049109;28;19963;-59
2022/11/07 07:26:11;;;;;;;;;;;;;;;11.10;93.20;100842.63;5048209;28;19959;-60
2022/11/07 07:28:37;;;;;;;;;;;;;;;11.18;93.01;100847.88;5050539;28;19920;-60
2022/11/07 07:31:17;;;;;;;;;;;;;;;11.20;92.71;100845.88;5048137;28;19928;-59
2022/11/07 07:33:43;;;;;;;;;;;;;;;11.28;92.47;100842.38;5047336;28;19917;-59
2022/11/07 07:36:09;;;;;;;;;;;;;;;11.27;92.01;100841.50;5044391;28;19916;-60
2022/11/07 07:38:34;;;;;;;;;;;;;;;11.32;91.94;100844.50;5056113;28;20037;-59
2022/11/07 07:40:59;;;;;;;;;;;;;;;11.36;92.17;100856.44;5043022;28;19971;-60
2022/11/07 07:43:26;;;;;;;;;;;;;;;11.36;91.42;100845.81;5048992;28;19927;-60
2022/11/07 07:45:51;;;;;;;;;;;;;;;11.36;91.61;100839.66;5047299;28;20269;-59
2022/11/07 07:48:16;;;;;;;;;;;;;;;11.35;91.78;100838.84;5047427;28;20413;-59
2022/11/07 07:50:41;;;;;;;;;;;;;;;11.37;91.75;100852.78;5043796;28;19913;-60
2022/11/07 07:53:07;;;;;;;;;;;;;;;11.38;91.37;100859.75;5049114;28;19921;-59
2022/11/07 07:55:32;;;;;;;;;;;;;;;11.42;91.28;100850.41;5055103;28;19921;-59
2022/11/07 07:57:57;;;;;;;;;;;;;;;11.44;91.65;100864.34;5052545;28;19957;-59
2022/11/07 08:00:22;;;;;;;;;;;;;;;11.45;91.72;100867.84;5051035;28;19921;-59
2022/11/07 08:02:47;;;;;;;;;;;;;;;11.46;91.74;100867.66;5046711;28;19912;-59
2022/11/07 08:05:13;;;;;;;;;;;;;;;11.47;91.77;100855.19;5044504;28;19917;-60
2022/11/07 08:07:49;;;;;;;;;;;;;;;11.53;91.59;100866.97;5049226;28;19960;-60
2022/11/07 08:10:14;;;;;;;;;;;;;;;11.54;91.75;100871.28;5049763;28;19913;-59
2022/11/07 08:12:43;;;;;;;;;;;;;;;11.56;91.79;100878.06;5057681;28;19966;-59
2022/11/07 08:15:09;;;;;;;;;;;;;;;11.62;91.60;100871.25;5044530;28;19970;-59
2022/11/07 08:17:34;;;;;;;;;;;;;;;11.67;91.57;100874.19;5050510;28;19991;-59
2022/11/07 08:19:59;;;;;;;;;;;;;;;11.72;91.17;100863.84;5046245;28;19948;-59
2022/11/07 08:22:25;;;;;;;;;;;;;;;11.74;91.18;100873.31;5049017;28;20313;-59
2022/11/07 08:24:50;;;;;;;;;;;;;;;11.77;91.11;100872.13;5048762;28;19943;-59
2022/11/07 08:27:15;;;;;;;;;;;;;;;11.76;91.22;100871.28;5044180;28;20418;-60
2022/11/07 08:29:40;;;;;;;;;;;;;;;11.85;91.29;100877.41;5053995;28;19967;-59
2022/11/07 08:32:06;;;;;;;;;;;;;;;11.86;91.22;100887.06;5058369;28;20296;-60
2022/11/07 08:34:31;;;;;;;;;;;;;;;11.86;91.04;100903.03;5048592;28;20002;-59
2022/11/07 08:36:56;;;;;;;;;;;;;;;11.87;90.66;100890.56;5044192;28;19913;-59
2022/11/07 08:39:21;;;;;;;;;;;;;;;11.88;90.57;100887.72;5051301;28;20019;-60
2022/11/07 08:41:46;;;;;;;;;;;;;;;11.94;90.82;100896.81;5053153;28;19916;-59
2022/11/07 08:44:11;;;;;;;;;;;;;;;12.01;91.08;100901.25;5054481;28;20757;-60
2022/11/07 08:46:37;;;;;;;;;;;;;;;12.05;90.47;100902.53;5049034;28;19912;-59
2022/11/07 08:49:02;;;;;;;;;;;;;;;12.07;90.29;100907.69;5040612;28;19927;-59
2022/11/07 08:51:27;;;;;;;;;;;;;;;12.17;90.51;100918.09;5043291;28;19913;-59
2022/11/07 08:53:52;;;;;;;;;;;;;;;12.20;90.34;100920.41;5049408;28;19932;-59
2022/11/07 08:56:18;;;;;;;;;;;;;;;12.26;90.16;100917.03;5049073;28;20456;-59
2022/11/07 08:58:43;;;;;;;;;;;;;;;12.28;90.09;100941.63;5044963;28;19913;-59
2022/11/07 09:01:09;;;;;;;;;;;;;;;12.25;90.29;100937.50;5042317;28;19920;-59
2022/11/07 09:03:35;;;;;;;;;;;;;;;12.25;90.03;100931.34;5048997;28;20560;-59
2022/11/07 09:06:00;;;;;;;;;;;;;;;12.24;89.93;100943.84;5052107;28;19967;-60
2022/11/07 09:08:26;;;;;;;;;;;;;;;12.25;90.00;100936.66;5046769;28;19916;-59
2022/11/07 09:10:51;;;;;;;;;;;;;;;12.27;89.41;100932.81;5041716;28;19913;-60
2022/11/07 09:13:16;;;;;;;;;;;;;;;12.29;89.53;100929.97;5049057;28;19993;-60
2022/11/07 09:15:41;;;;;;;;;;;;;;;12.31;89.45;100935.94;5047548;28;19913;-60
2022/11/07 09:18:06;;;;;;;;;;;;;;;12.31;89.53;100938.59;5049703;28;19913;-59
2022/11/07 09:20:32;;;;;;;;;;;;;;;12.35;89.31;100937.25;5043147;28;19924;-59
2022/11/07 09:22:57;;;;;;;;;;;;;;;12.34;89.48;100938.25;5053671;28;20412;-60
2022/11/07 09:25:23;;;;;;;;;;;;;;;12.34;89.65;100946.25;5045598;28;19921;-60
2022/11/07 09:27:50;;;;;;;;;;;;;;;12.33;89.65;100945.41;5058866;28;19918;-59
2022/11/07 09:30:16;;;;;;;;;;;;;;;12.32;89.62;100956.25;5054143;28;19913;-60
2022/11/07 09:32:41;;;;;;;;;;;;;;;12.28;90.05;100949.63;5048321;28;20577;-60
2022/11/07 09:35:06;;;;;;;;;;;;;;;12.26;90.26;100960.44;5047738;28;20402;-59
2022/11/07 09:37:31;;;;;;;;;;;;;;;12.24;90.07;100964.31;5048442;28;19912;-60
2022/11/07 09:39:57;;;;;;;;;;;;;;;12.25;90.22;100961.47;5047071;28;19919;-59
2022/11/07 09:42:41;;;;;;;;;;;;;;;12.28;89.89;100957.59;5047117;28;19926;-59
2022/11/07 09:45:09;;;;;;;;;;;;;;;12.29;89.64;100960.09;5052325;28;19921;-60
2022/11/07 09:47:36;;;;;;;;;;;;;;;12.31;89.72;100957.25;5045755;28;19921;-59
2022/11/07 09:50:24;;;;;;;;;;;;;;;12.33;89.78;100966.72;5045012;28;19983;-59
2022/11/07 09:52:58;;;;;;;;;;;;;;;12.35;89.40;100970.03;5038009;28;19921;-59
2022/11/07 09:55:32;;;;;;;;;;;;;;;12.37;90.02;100964.50;5048080;28;19971;-59
2022/11/07 09:57:59;;;;;;;;;;;;;;;12.39;89.51;100967.81;5046269;28;19921;-60
2022/11/07 10:00:28;;;;;;;;;;;;;;;12.38;89.40;100964.34;5047463;28;19916;-60
2022/11/07 10:02:54;;;;;;;;;;;;;;;12.43;89.35;100969.13;5047540;28;19924;-60
2022/11/07 10:05:42;;;;;;;;;;;;;;;12.46;89.42;100968.78;5054111;28;19967;-60
2022/11/07 10:08:17;;;;;;;;;;;;;;;12.51;88.92;100963.75;5044579;28;19913;-59
2022/11/07 10:10:45;;;;;;;;;;;;;;;12.56;89.10;100963.19;5048903;28;19913;-59
2022/11/07 10:13:13;;;;;;;;;;;;;;;12.59;88.51;100961.00;5052038;28;20021;-59
2022/11/07 10:15:41;;;;;;;;;;;;;;;12.66;88.66;100963.75;5052250;28;19938;-60
2022/11/07 10:18:06;;;;;;;;;;;;;;;12.71;88.54;100966.72;5051733;28;19923;-60
2022/11/07 10:20:39;;;;;;;;;;;;;;;12.82;88.24;100971.63;5050592;28;19917;-60
2022/11/07 10:23:19;;;;;;;;;;;;;;;12.89;87.68;100972.53;5050231;28;20408;-60
2022/11/07 10:26:07;;;;;;;;;;;;;;;12.92;87.73;100974.00;5050637;28;19920;-59
2022/11/07 10:28:42;;;;;;;;;;;;;;;12.96;87.70;100977.94;5050750;28;20562;-60
2022/11/07 10:31:09;;;;;;;;;;;;;;;12.93;87.27;100981.81;5051783;28;19920;-60
2022/11/07 10:33:55;;;;;;;;;;;;;;;12.91;86.93;100999.00;5056034;28;19936;-60
2022/11/07 10:36:30;;;;;;;;;;;;;;;12.90;87.11;100990.19;5051700;28;20382;-59
2022/11/07 10:38:56;;;;;;;;;;;;;;;12.89;87.25;100987.69;5047247;28;20000;-59
2022/11/07 10:41:23;;;;;;;;;;;;;;;12.88;87.55;100997.53;5053552;28;20055;-60
2022/11/07 10:43:52;;;;;;;;;;;;;;;12.86;86.97;100998.72;5052232;28;19974;-60
2022/11/07 10:46:19;;;;;;;;;;;;;;;12.87;87.25;101006.53;5050002;28;19998;-59
2022/11/07 10:48:52;;;;;;;;;;;;;;;12.88;87.05;100996.69;5055973;28;20288;-59
2022/11/07 10:51:17;;;;;;;;;;;;;;;12.92;86.95;101003.31;5048531;28;19919;-59
2022/11/07 10:53:43;;;;;;;;;;;;;;;12.95;86.92;100992.28;5055297;28;19913;-59
2022/11/07 10:56:09;;;;;;;;;;;;;;;12.98;87.02;100991.94;5050573;28;19920;-60
2022/11/07 10:58:41;;;;;;;;;;;;;;;13.02;86.97;101003.91;5051724;28;19964;-60
2022/11/07 11:01:08;;;;;;;;;;;;;;;13.07;87.27;101004.19;5049610;28;19921;-59
2022/11/07 11:03:39;;;;;;;;;;;;;;;13.08;86.65;100995.16;5047291;28;19913;-60
2022/11/07 11:06:08;;;;;;;;;;;;;;;13.11;86.46;100997.47;5055650;28;19921;-60
2022/11/07 11:08:35;;;;;;;;;;;;;;;13.11;86.32;100997.47;5051401;28;19924;-60
2022/11/07 11:11:00;;;;;;;;;;;;;;;13.14;86.40;100997.09;5056017;28;19912;-60
2022/11/07 11:13:26;;;;;;;;;;;;;;;13.15;86.04;100993.41;5046525;28;19913;-59
2022/11/07 11:15:51;;;;;;;;;;;;;;;13.17;85.93;101003.91;5054756;28;19913;-60
2022/11/07 11:18:17;;;;;;;;;;;;;;;13.21;85.83;100991.88;5050522;28;20024;-60
2022/11/07 11:20:53;;;;;;;;;;;;;;;13.24;85.60;100986.19;5048831;28;20300;-60
2022/11/07 11:23:23;;;;;;;;;;;;;;;13.29;85.20;100981.13;5050901;28;20514;-60
2022/11/07 11:25:49;;;;;;;;;;;;;;;13.32;85.21;100978.94;5053237;28;19919;-60
2022/11/07 11:28:21;;;;;;;;;;;;;;;13.38;85.30;100984.53;5045514;28;20046;-59
2022/11/07 11:30:49;;;;;;;;;;;;;;;13.40;84.60;100979.84;5050015;28;19923;-59
2022/11/07 11:33:18;;;;;;;;;;;;;;;13.42;84.92;100983.97;5045744;28;20406;-59
2022/11/07 11:35:43;;;;;;;;;;;;;;;13.44;84.32;100962.44;5041095;28;19925;-61
2022/11/07 11:38:17;;;;;;;;;;;;;;;13.48;84.07;100972.56;5047336;28;19947;-60
2022/11/07 11:40:45;;;;;;;;;;;;;;;13.50;83.93;100977.69;5042634;28;20518;-60
2022/11/07 11:43:21;;;;;;;;;;;;;;;13.52;83.52;100965.81;5048274;28;20137;-60
2022/11/07 11:46:05;;;;;;;;;;;;;;;13.52;83.51;100968.50;5049781;28;19921;-60
2022/11/07 11:48:33;;;;;;;;;;;;;;;13.53;83.27;100964.81;5048621;28;20354;-60
2022/11/07 11:51:05;;;;;;;;;;;;;;;13.56;82.78;100982.28;5047121;28;19920;-60
2022/11/07 11:53:30;;;;;;;;;;;;;;;13.58;83.25;100994.44;5045428;28;19966;-60
2022/11/07 11:55:59;;;;;;;;;;;;;;;13.60;82.52;100973.75;5044328;28;19924;-60
2022/11/07 11:58:43;;;;;;;;;;;;;;;13.63;82.42;100976.03;5048327;28;20003;-60
2022/11/07 12:01:20;;;;;;;;;;;;;;;13.66;82.24;100979.34;5048750;28;19927;-61
2022/11/07 12:03:55;;;;;;;;;;;;;;;13.68;82.65;100978.16;5046985;28;19917;-60
2022/11/07 12:06:25;;;;;;;;;;;;;;;13.72;81.96;100982.09;5044704;28;19924;-60
2022/11/07 12:09:01;;;;;;;;;;;;;;;13.75;81.40;100972.88;5044766;28;19968;-59
2022/11/07 12:11:37;;;;;;;;;;;;;;;13.81;81.26;100975.63;5046256;28;19917;-60
2022/11/07 12:14:21;;;;;;;;;;;;;;;13.86;81.43;100967.84;5044195;28;19924;-59
2022/11/07 12:16:51;;;;;;;;;;;;;;;13.93;80.78;100979.47;5048336;28;20002;-60
2022/11/07 12:19:46;;;;;;;;;;;;;;;13.95;80.43;100964.06;5045133;28;20370;-60
2022/11/07 12:22:14;;;;;;;;;;;;;;;13.97;80.33;100976.41;5034209;28;20012;-61
2022/11/07 12:24:42;;;;;;;;;;;;;;;13.97;80.18;100971.91;5045359;28;19927;-61
2022/11/07 12:27:18;;;;;;;;;;;;;;;13.97;80.16;100971.91;5048373;28;19916;-60
2022/11/07 12:29:43;;;;;;;;;;;;;;;14.04;80.46;100975.44;5045734;28;19925;-60
2022/11/07 12:32:15;;;;;;;;;;;;;;;14.11;80.62;100979.00;5047008;28;19921;-59
2022/11/07 12:34:46;;;;;;;;;;;;;;;14.20;80.18;100971.72;5043713;28;19925;-60
2022/11/07 12:37:26;;;;;;;;;;;;;;;14.33;79.79;100973.69;5046705;28;19928;-60
2022/11/07 12:40:10;;;;;;;;;;;;;;;14.48;78.95;100972.63;5045861;28;20579;-60
2022/11/07 12:42:56;;;;;;;;;;;;;;;14.53;78.39;100969.38;5046654;28;19920;-60
2022/11/07 12:45:27;;;;;;;;;;;;;;;14.48;77.80;100990.50;5043315;28;19935;-60
2022/11/07 12:48:02;;;;;;;;;;;;;;;14.44;78.27;100968.66;5043715;28;19917;-60